sensor_id;sensor_type;location;lat;lon;timestamp;P1;durP1;ratioP1;P2;durP2;ratioP2
3311;SDS011;1668;49.648;8.570;2022-09-13T00:00:41;14.43;;;4.33;;
3311;SDS011;1668;49.648;8.570;2022-09-13T00:03:08;6.40;;;3.70;;
3311;SDS011;1668;49.648;8.570;2022-09-13T00:05:36;5.07;;;3.60;;
3311;SDS011;1668;49.648;8.570;2022-09-13T00:08:05;4.67;;;3.87;;
3311;SDS011;1668;49.648;8.570;2022-09-13T00:10:34;6.40;;;4.20;;
3311;SDS011;1668;49.648;8.570;2022-09-13T00:13:03;4.97;;;3.90;;
3311;SDS011;1668;49.648;8.570;2022-09-13T00:15:30;7.90;;;3.67;;
3311;SDS011;1668;49.648;8.570;2022-09-13T00:17:57;5.67;;;3.90;;
3311;SDS011;1668;49.648;8.570;2022-09-13T00:20:24;5.70;;;3.90;;
3311;SDS011;1668;49.648;8.570;2022-09-13T00:22:51;5.97;;;4.03;;
3311;SDS011;1668;49.648;8.570;2022-09-13T00:25:18;7.43;;;3.93;;
3311;SDS011;1668;49.648;8.570;2022-09-13T00:27:47;5.33;;;4.00;;
3311;SDS011;1668;49.648;8.570;2022-09-13T00:30:13;4.83;;;3.87;;
3311;SDS011;1668;49.648;8.570;2022-09-13T00:32:40;11.30;;;4.07;;
3311;SDS011;1668;49.648;8.570;2022-09-13T00:35:07;5.40;;;4.37;;
3311;SDS011;1668;49.648;8.570;2022-09-13T00:37:34;9.33;;;3.77;;
3311;SDS011;1668;49.648;8.570;2022-09-13T00:40:02;7.87;;;3.97;;
3311;SDS011;1668;49.648;8.570;2022-09-13T00:42:31;6.50;;;3.90;;
3311;SDS011;1668;49.648;8.570;2022-09-13T00:45:00;5.10;;;3.60;;
3311;SDS011;1668;49.648;8.570;2022-09-13T00:47:31;4.53;;;4.00;;
3311;SDS011;1668;49.648;8.570;2022-09-13T00:50:04;5.57;;;3.90;;
3311;SDS011;1668;49.648;8.570;2022-09-13T00:52:35;4.57;;;3.83;;
3311;SDS011;1668;49.648;8.570;2022-09-13T00:55:05;4.63;;;3.83;;
3311;SDS011;1668;49.648;8.570;2022-09-13T00:57:36;6.17;;;4.00;;
3311;SDS011;1668;49.648;8.570;2022-09-13T01:00:07;5.70;;;3.90;;
3311;SDS011;1668;49.648;8.570;2022-09-13T01:02:37;5.13;;;4.13;;
3311;SDS011;1668;49.648;8.570;2022-09-13T01:05:06;7.20;;;4.23;;
3311;SDS011;1668;49.648;8.570;2022-09-13T01:07:34;4.90;;;4.37;;
3311;SDS011;1668;49.648;8.570;2022-09-13T01:10:02;7.77;;;3.67;;
3311;SDS011;1668;49.648;8.570;2022-09-13T01:12:32;4.80;;;4.30;;
3311;SDS011;1668;49.648;8.570;2022-09-13T01:15:03;4.20;;;3.63;;
3311;SDS011;1668;49.648;8.570;2022-09-13T01:17:33;5.47;;;4.10;;
3311;SDS011;1668;49.648;8.570;2022-09-13T01:20:03;7.40;;;4.10;;
3311;SDS011;1668;49.648;8.570;2022-09-13T01:29:08;5.37;;;3.80;;
3311;SDS011;1668;49.648;8.570;2022-09-13T01:31:52;7.43;;;4.60;;
3311;SDS011;1668;49.648;8.570;2022-09-13T01:34:31;6.67;;;4.17;;
3311;SDS011;1668;49.648;8.570;2022-09-13T01:37:17;6.60;;;4.30;;
3311;SDS011;1668;49.648;8.570;2022-09-13T01:40:02;7.10;;;4.00;;
3311;SDS011;1668;49.648;8.570;2022-09-13T01:42:44;7.70;;;3.90;;
3311;SDS011;1668;49.648;8.570;2022-09-13T01:45:23;5.20;;;4.03;;
3311;SDS011;1668;49.648;8.570;2022-09-13T01:47:58;6.37;;;4.50;;
3311;SDS011;1668;49.648;8.570;2022-09-13T01:50:33;4.30;;;3.90;;
3311;SDS011;1668;49.648;8.570;2022-09-13T01:53:08;10.23;;;4.00;;
3311;SDS011;1668;49.648;8.570;2022-09-13T01:55:45;4.20;;;3.70;;
3311;SDS011;1668;49.648;8.570;2022-09-13T01:58:18;4.57;;;4.10;;
3311;SDS011;1668;49.648;8.570;2022-09-13T02:00:51;5.63;;;3.80;;
3311;SDS011;1668;49.648;8.570;2022-09-13T02:03:29;4.03;;;3.60;;
3311;SDS011;1668;49.648;8.570;2022-09-13T02:06:03;5.40;;;4.37;;
3311;SDS011;1668;49.648;8.570;2022-09-13T02:08:34;6.53;;;4.00;;
3311;SDS011;1668;49.648;8.570;2022-09-13T02:11:07;4.90;;;4.03;;
3311;SDS011;1668;49.648;8.570;2022-09-13T02:13:36;6.93;;;4.20;;
3311;SDS011;1668;49.648;8.570;2022-09-13T02:16:07;8.53;;;4.50;;
3311;SDS011;1668;49.648;8.570;2022-09-13T02:18:40;4.70;;;4.00;;
3311;SDS011;1668;49.648;8.570;2022-09-13T02:21:10;6.63;;;4.00;;
3311;SDS011;1668;49.648;8.570;2022-09-13T02:23:40;5.80;;;3.90;;
3311;SDS011;1668;49.648;8.570;2022-09-13T02:26:12;7.60;;;4.20;;
3311;SDS011;1668;49.648;8.570;2022-09-13T02:28:41;6.40;;;4.10;;
3311;SDS011;1668;49.648;8.570;2022-09-13T02:31:10;4.93;;;3.90;;
3311;SDS011;1668;49.648;8.570;2022-09-13T02:33:41;5.30;;;4.20;;
3311;SDS011;1668;49.648;8.570;2022-09-13T02:36:14;4.73;;;4.00;;
3311;SDS011;1668;49.648;8.570;2022-09-13T02:38:47;5.50;;;4.00;;
3311;SDS011;1668;49.648;8.570;2022-09-13T02:41:21;4.47;;;3.83;;
3311;SDS011;1668;49.648;8.570;2022-09-13T02:43:52;7.33;;;3.67;;
3311;SDS011;1668;49.648;8.570;2022-09-13T02:46:28;5.03;;;4.30;;
3311;SDS011;1668;49.648;8.570;2022-09-13T02:49:10;6.43;;;4.37;;
3311;SDS011;1668;49.648;8.570;2022-09-13T02:51:42;5.20;;;4.10;;
3311;SDS011;1668;49.648;8.570;2022-09-13T02:54:17;4.90;;;4.33;;
3311;SDS011;1668;49.648;8.570;2022-09-13T02:56:52;6.57;;;3.80;;
3311;SDS011;1668;49.648;8.570;2022-09-13T02:59:23;7.47;;;4.63;;
3311;SDS011;1668;49.648;8.570;2022-09-13T03:01:51;5.10;;;4.47;;
3311;SDS011;1668;49.648;8.570;2022-09-13T03:04:24;9.53;;;4.53;;
3311;SDS011;1668;49.648;8.570;2022-09-13T03:06:51;5.47;;;4.20;;
3311;SDS011;1668;49.648;8.570;2022-09-13T03:09:18;7.60;;;4.40;;
3311;SDS011;1668;49.648;8.570;2022-09-13T03:11:51;5.30;;;4.50;;
3311;SDS011;1668;49.648;8.570;2022-09-13T03:14:39;5.33;;;4.60;;
3311;SDS011;1668;49.648;8.570;2022-09-13T03:17:13;11.20;;;5.00;;
3311;SDS011;1668;49.648;8.570;2022-09-13T03:19:55;7.23;;;4.67;;
3311;SDS011;1668;49.648;8.570;2022-09-13T03:22:43;8.70;;;4.87;;
3311;SDS011;1668;49.648;8.570;2022-09-13T03:25:19;6.70;;;3.90;;
3311;SDS011;1668;49.648;8.570;2022-09-13T03:27:56;7.13;;;4.90;;
3311;SDS011;1668;49.648;8.570;2022-09-13T03:30:28;7.30;;;5.10;;
3311;SDS011;1668;49.648;8.570;2022-09-13T03:32:59;6.80;;;5.37;;
3311;SDS011;1668;49.648;8.570;2022-09-13T03:35:33;6.20;;;5.03;;
3311;SDS011;1668;49.648;8.570;2022-09-13T03:38:06;7.33;;;5.77;;
3311;SDS011;1668;49.648;8.570;2022-09-13T03:40:37;7.77;;;5.90;;
3311;SDS011;1668;49.648;8.570;2022-09-13T03:43:09;6.93;;;5.30;;
3311;SDS011;1668;49.648;8.570;2022-09-13T03:45:41;5.60;;;4.80;;
3311;SDS011;1668;49.648;8.570;2022-09-13T03:48:23;6.23;;;5.03;;
3311;SDS011;1668;49.648;8.570;2022-09-13T03:50:53;6.80;;;5.27;;
3311;SDS011;1668;49.648;8.570;2022-09-13T03:53:21;6.20;;;5.43;;
3311;SDS011;1668;49.648;8.570;2022-09-13T03:55:50;6.33;;;5.40;;
3311;SDS011;1668;49.648;8.570;2022-09-13T03:58:18;6.67;;;5.33;;
3311;SDS011;1668;49.648;8.570;2022-09-13T04:00:46;7.17;;;5.50;;
3311;SDS011;1668;49.648;8.570;2022-09-13T04:03:13;9.40;;;6.00;;
3311;SDS011;1668;49.648;8.570;2022-09-13T04:05:40;7.23;;;5.40;;
3311;SDS011;1668;49.648;8.570;2022-09-13T04:08:08;9.60;;;5.23;;
3311;SDS011;1668;49.648;8.570;2022-09-13T04:10:35;7.50;;;4.90;;
3311;SDS011;1668;49.648;8.570;2022-09-13T04:13:02;9.20;;;4.83;;
3311;SDS011;1668;49.648;8.570;2022-09-13T04:15:30;5.60;;;5.00;;
3311;SDS011;1668;49.648;8.570;2022-09-13T04:17:57;6.90;;;5.00;;
3311;SDS011;1668;49.648;8.570;2022-09-13T04:20:25;7.93;;;4.80;;
3311;SDS011;1668;49.648;8.570;2022-09-13T04:22:53;6.37;;;5.43;;
3311;SDS011;1668;49.648;8.570;2022-09-13T04:25:23;7.20;;;5.37;;
3311;SDS011;1668;49.648;8.570;2022-09-13T04:27:52;6.50;;;5.00;;
3311;SDS011;1668;49.648;8.570;2022-09-13T04:30:20;5.80;;;4.87;;
3311;SDS011;1668;49.648;8.570;2022-09-13T04:32:47;6.93;;;5.30;;
3311;SDS011;1668;49.648;8.570;2022-09-13T04:35:14;8.13;;;5.70;;
3311;SDS011;1668;49.648;8.570;2022-09-13T04:37:44;5.53;;;5.03;;
3311;SDS011;1668;49.648;8.570;2022-09-13T04:40:11;6.07;;;5.47;;
3311;SDS011;1668;49.648;8.570;2022-09-13T04:42:40;7.87;;;5.03;;
3311;SDS011;1668;49.648;8.570;2022-09-13T04:45:10;8.07;;;5.60;;
3311;SDS011;1668;49.648;8.570;2022-09-13T04:47:37;6.60;;;5.40;;
3311;SDS011;1668;49.648;8.570;2022-09-13T04:50:04;8.90;;;5.77;;
3311;SDS011;1668;49.648;8.570;2022-09-13T04:52:32;7.90;;;5.77;;
3311;SDS011;1668;49.648;8.570;2022-09-13T04:54:59;9.13;;;6.10;;
3311;SDS011;1668;49.648;8.570;2022-09-13T04:57:26;9.43;;;6.57;;
3311;SDS011;1668;49.648;8.570;2022-09-13T04:59:54;11.50;;;5.80;;
3311;SDS011;1668;49.648;8.570;2022-09-13T05:02:21;8.90;;;5.33;;
3311;SDS011;1668;49.648;8.570;2022-09-13T05:04:48;7.40;;;5.90;;
3311;SDS011;1668;49.648;8.570;2022-09-13T05:07:15;7.03;;;5.40;;
3311;SDS011;1668;49.648;8.570;2022-09-13T05:09:42;7.93;;;5.50;;
3311;SDS011;1668;49.648;8.570;2022-09-13T05:12:09;7.50;;;5.87;;
3311;SDS011;1668;49.648;8.570;2022-09-13T05:14:36;12.27;;;6.43;;
3311;SDS011;1668;49.648;8.570;2022-09-13T05:17:04;7.07;;;6.37;;
3311;SDS011;1668;49.648;8.570;2022-09-13T05:19:31;6.93;;;5.17;;
3311;SDS011;1668;49.648;8.570;2022-09-13T05:21:59;7.20;;;5.67;;
3311;SDS011;1668;49.648;8.570;2022-09-13T05:24:27;8.03;;;5.20;;
3311;SDS011;1668;49.648;8.570;2022-09-13T05:26:54;8.70;;;5.20;;
3311;SDS011;1668;49.648;8.570;2022-09-13T05:29:20;7.33;;;5.77;;
3311;SDS011;1668;49.648;8.570;2022-09-13T05:31:47;10.83;;;5.70;;
3311;SDS011;1668;49.648;8.570;2022-09-13T05:34:16;8.30;;;5.77;;
3311;SDS011;1668;49.648;8.570;2022-09-13T05:36:43;12.23;;;5.17;;
3311;SDS011;1668;49.648;8.570;2022-09-13T05:39:11;7.53;;;5.50;;
3311;SDS011;1668;49.648;8.570;2022-09-13T05:41:41;11.27;;;5.67;;
3311;SDS011;1668;49.648;8.570;2022-09-13T05:44:09;11.40;;;6.50;;
3311;SDS011;1668;49.648;8.570;2022-09-13T05:46:36;6.93;;;5.63;;
3311;SDS011;1668;49.648;8.570;2022-09-13T05:49:03;14.00;;;5.87;;
3311;SDS011;1668;49.648;8.570;2022-09-13T05:51:31;11.47;;;5.93;;
3311;SDS011;1668;49.648;8.570;2022-09-13T05:53:58;10.27;;;5.93;;
3311;SDS011;1668;49.648;8.570;2022-09-13T05:56:25;6.43;;;5.73;;
3311;SDS011;1668;49.648;8.570;2022-09-13T05:58:53;5.93;;;5.00;;
3311;SDS011;1668;49.648;8.570;2022-09-13T06:01:21;8.30;;;5.70;;
3311;SDS011;1668;49.648;8.570;2022-09-13T06:03:49;6.97;;;5.67;;
3311;SDS011;1668;49.648;8.570;2022-09-13T06:06:17;7.67;;;5.00;;
3311;SDS011;1668;49.648;8.570;2022-09-13T06:08:46;9.67;;;6.20;;
3311;SDS011;1668;49.648;8.570;2022-09-13T06:11:13;7.20;;;5.57;;
3311;SDS011;1668;49.648;8.570;2022-09-13T06:13:40;10.20;;;6.10;;
3311;SDS011;1668;49.648;8.570;2022-09-13T06:16:09;7.67;;;5.20;;
3311;SDS011;1668;49.648;8.570;2022-09-13T06:18:38;7.30;;;5.10;;
3311;SDS011;1668;49.648;8.570;2022-09-13T06:21:05;6.10;;;5.23;;
3311;SDS011;1668;49.648;8.570;2022-09-13T06:23:34;6.50;;;5.57;;
3311;SDS011;1668;49.648;8.570;2022-09-13T06:26:03;10.30;;;5.23;;
3311;SDS011;1668;49.648;8.570;2022-09-13T06:28:32;7.10;;;5.03;;
3311;SDS011;1668;49.648;8.570;2022-09-13T06:31:00;7.47;;;6.00;;
3311;SDS011;1668;49.648;8.570;2022-09-13T06:33:28;10.13;;;5.80;;
3311;SDS011;1668;49.648;8.570;2022-09-13T06:35:58;9.30;;;5.60;;
3311;SDS011;1668;49.648;8.570;2022-09-13T06:38:26;8.50;;;6.00;;
3311;SDS011;1668;49.648;8.570;2022-09-13T06:41:01;9.03;;;6.70;;
3311;SDS011;1668;49.648;8.570;2022-09-13T06:43:37;8.27;;;6.10;;
3311;SDS011;1668;49.648;8.570;2022-09-13T06:46:06;7.23;;;5.87;;
3311;SDS011;1668;49.648;8.570;2022-09-13T06:48:35;6.87;;;5.60;;
3311;SDS011;1668;49.648;8.570;2022-09-13T06:51:04;8.83;;;7.23;;
3311;SDS011;1668;49.648;8.570;2022-09-13T06:53:33;8.73;;;6.73;;
3311;SDS011;1668;49.648;8.570;2022-09-13T06:56:02;10.73;;;7.00;;
3311;SDS011;1668;49.648;8.570;2022-09-13T06:58:32;12.40;;;6.63;;
3311;SDS011;1668;49.648;8.570;2022-09-13T07:01:04;14.03;;;7.83;;
3311;SDS011;1668;49.648;8.570;2022-09-13T07:03:37;8.83;;;6.77;;
3311;SDS011;1668;49.648;8.570;2022-09-13T07:06:05;11.80;;;7.20;;
3311;SDS011;1668;49.648;8.570;2022-09-13T07:08:34;13.23;;;7.23;;
3311;SDS011;1668;49.648;8.570;2022-09-13T07:11:01;12.00;;;7.20;;
3311;SDS011;1668;49.648;8.570;2022-09-13T07:13:29;13.37;;;7.50;;
3311;SDS011;1668;49.648;8.570;2022-09-13T07:15:56;8.77;;;7.20;;
3311;SDS011;1668;49.648;8.570;2022-09-13T07:18:26;11.93;;;6.57;;
3311;SDS011;1668;49.648;8.570;2022-09-13T07:20:57;12.10;;;6.53;;
3311;SDS011;1668;49.648;8.570;2022-09-13T07:23:26;7.70;;;6.40;;
3311;SDS011;1668;49.648;8.570;2022-09-13T07:25:53;9.77;;;7.20;;
3311;SDS011;1668;49.648;8.570;2022-09-13T07:28:25;8.67;;;5.53;;
3311;SDS011;1668;49.648;8.570;2022-09-13T07:30:55;8.53;;;6.57;;
3311;SDS011;1668;49.648;8.570;2022-09-13T07:33:24;10.73;;;6.50;;
3311;SDS011;1668;49.648;8.570;2022-09-13T07:35:54;14.17;;;7.40;;
3311;SDS011;1668;49.648;8.570;2022-09-13T07:38:22;9.57;;;7.03;;
3311;SDS011;1668;49.648;8.570;2022-09-13T07:40:52;8.37;;;6.80;;
3311;SDS011;1668;49.648;8.570;2022-09-13T07:43:20;10.43;;;6.83;;
3311;SDS011;1668;49.648;8.570;2022-09-13T07:45:47;12.60;;;6.73;;
3311;SDS011;1668;49.648;8.570;2022-09-13T07:48:23;9.30;;;7.10;;
3311;SDS011;1668;49.648;8.570;2022-09-13T07:50:58;13.47;;;7.83;;
3311;SDS011;1668;49.648;8.570;2022-09-13T07:53:27;10.40;;;7.17;;
3311;SDS011;1668;49.648;8.570;2022-09-13T07:55:58;11.37;;;7.30;;
3311;SDS011;1668;49.648;8.570;2022-09-13T07:58:25;8.40;;;7.00;;
3311;SDS011;1668;49.648;8.570;2022-09-13T08:00:52;9.57;;;6.57;;
3311;SDS011;1668;49.648;8.570;2022-09-13T08:03:19;10.60;;;7.13;;
3311;SDS011;1668;49.648;8.570;2022-09-13T08:05:47;10.63;;;7.83;;
3311;SDS011;1668;49.648;8.570;2022-09-13T08:08:14;12.87;;;8.23;;
3311;SDS011;1668;49.648;8.570;2022-09-13T08:10:41;9.40;;;7.60;;
3311;SDS011;1668;49.648;8.570;2022-09-13T08:13:08;9.47;;;7.27;;
3311;SDS011;1668;49.648;8.570;2022-09-13T08:15:35;11.60;;;7.97;;
3311;SDS011;1668;49.648;8.570;2022-09-13T08:18:02;13.23;;;7.43;;
3311;SDS011;1668;49.648;8.570;2022-09-13T08:20:34;10.67;;;7.60;;
3311;SDS011;1668;49.648;8.570;2022-09-13T08:23:03;10.40;;;7.57;;
3311;SDS011;1668;49.648;8.570;2022-09-13T08:25:31;14.37;;;7.87;;
3311;SDS011;1668;49.648;8.570;2022-09-13T08:27:58;9.37;;;7.67;;
3311;SDS011;1668;49.648;8.570;2022-09-13T08:30:26;12.83;;;8.80;;
3311;SDS011;1668;49.648;8.570;2022-09-13T08:32:57;10.43;;;7.63;;
3311;SDS011;1668;49.648;8.570;2022-09-13T08:35:25;10.17;;;7.63;;
3311;SDS011;1668;49.648;8.570;2022-09-13T08:37:52;11.03;;;8.13;;
3311;SDS011;1668;49.648;8.570;2022-09-13T08:40:21;9.93;;;7.80;;
3311;SDS011;1668;49.648;8.570;2022-09-13T08:42:52;9.80;;;8.00;;
3311;SDS011;1668;49.648;8.570;2022-09-13T08:45:26;10.43;;;8.30;;
3311;SDS011;1668;49.648;8.570;2022-09-13T08:47:55;13.10;;;8.17;;
3311;SDS011;1668;49.648;8.570;2022-09-13T08:50:27;10.93;;;7.93;;
3311;SDS011;1668;49.648;8.570;2022-09-13T08:52:59;12.27;;;8.33;;
3311;SDS011;1668;49.648;8.570;2022-09-13T08:55:39;10.87;;;7.70;;
3311;SDS011;1668;49.648;8.570;2022-09-13T08:58:24;11.17;;;7.70;;
3311;SDS011;1668;49.648;8.570;2022-09-13T09:01:02;13.20;;;6.40;;
3311;SDS011;1668;49.648;8.570;2022-09-13T09:03:36;13.57;;;8.10;;
3311;SDS011;1668;49.648;8.570;2022-09-13T09:06:10;9.73;;;7.47;;
3311;SDS011;1668;49.648;8.570;2022-09-13T09:08:39;8.33;;;6.33;;
3311;SDS011;1668;49.648;8.570;2022-09-13T09:11:13;9.73;;;7.30;;
3311;SDS011;1668;49.648;8.570;2022-09-13T09:13:49;8.63;;;6.97;;
3311;SDS011;1668;49.648;8.570;2022-09-13T09:16:25;6.60;;;5.93;;
3311;SDS011;1668;49.648;8.570;2022-09-13T09:18:58;12.10;;;7.90;;
3311;SDS011;1668;49.648;8.570;2022-09-13T09:21:33;9.10;;;7.30;;
3311;SDS011;1668;49.648;8.570;2022-09-13T09:24:01;9.03;;;7.00;;
3311;SDS011;1668;49.648;8.570;2022-09-13T09:26:31;14.13;;;7.17;;
3311;SDS011;1668;49.648;8.570;2022-09-13T09:28:58;8.10;;;7.03;;
3311;SDS011;1668;49.648;8.570;2022-09-13T09:31:28;9.70;;;6.93;;
3311;SDS011;1668;49.648;8.570;2022-09-13T09:34:06;9.70;;;7.40;;
3311;SDS011;1668;49.648;8.570;2022-09-13T09:36:38;11.80;;;7.03;;
3311;SDS011;1668;49.648;8.570;2022-09-13T09:39:09;8.60;;;6.83;;
3311;SDS011;1668;49.648;8.570;2022-09-13T09:41:39;11.83;;;7.40;;
3311;SDS011;1668;49.648;8.570;2022-09-13T09:44:11;8.60;;;7.03;;
3311;SDS011;1668;49.648;8.570;2022-09-13T09:46:42;11.17;;;8.70;;
3311;SDS011;1668;49.648;8.570;2022-09-13T09:49:13;12.43;;;7.33;;
3311;SDS011;1668;49.648;8.570;2022-09-13T09:52:02;10.80;;;7.17;;
3311;SDS011;1668;49.648;8.570;2022-09-13T09:54:32;10.27;;;7.53;;
3311;SDS011;1668;49.648;8.570;2022-09-13T09:57:01;12.07;;;7.37;;
3311;SDS011;1668;49.648;8.570;2022-09-13T09:59:31;12.00;;;6.93;;
3311;SDS011;1668;49.648;8.570;2022-09-13T10:01:59;11.17;;;7.17;;
3311;SDS011;1668;49.648;8.570;2022-09-13T10:04:31;8.60;;;6.57;;
3311;SDS011;1668;49.648;8.570;2022-09-13T10:07:10;11.50;;;6.80;;
3311;SDS011;1668;49.648;8.570;2022-09-13T10:09:52;9.40;;;6.50;;
3311;SDS011;1668;49.648;8.570;2022-09-13T10:12:26;9.10;;;6.80;;
3311;SDS011;1668;49.648;8.570;2022-09-13T10:14:55;13.43;;;7.83;;
3311;SDS011;1668;49.648;8.570;2022-09-13T10:17:30;8.80;;;6.60;;
3311;SDS011;1668;49.648;8.570;2022-09-13T10:19:58;7.80;;;6.67;;
3311;SDS011;1668;49.648;8.570;2022-09-13T10:22:26;9.50;;;6.97;;
3311;SDS011;1668;49.648;8.570;2022-09-13T10:24:54;9.17;;;7.40;;
3311;SDS011;1668;49.648;8.570;2022-09-13T10:27:40;10.13;;;7.37;;
3311;SDS011;1668;49.648;8.570;2022-09-13T10:30:22;13.60;;;6.17;;
3311;SDS011;1668;49.648;8.570;2022-09-13T10:32:57;8.93;;;6.33;;
3311;SDS011;1668;49.648;8.570;2022-09-13T10:35:25;10.47;;;7.80;;
3311;SDS011;1668;49.648;8.570;2022-09-13T10:37:54;11.80;;;7.63;;
3311;SDS011;1668;49.648;8.570;2022-09-13T10:40:22;10.73;;;7.63;;
3311;SDS011;1668;49.648;8.570;2022-09-13T10:42:54;10.00;;;7.77;;
3311;SDS011;1668;49.648;8.570;2022-09-13T10:45:23;9.43;;;7.00;;
3311;SDS011;1668;49.648;8.570;2022-09-13T10:47:52;15.80;;;8.03;;
3311;SDS011;1668;49.648;8.570;2022-09-13T10:50:24;10.00;;;7.13;;
3311;SDS011;1668;49.648;8.570;2022-09-13T10:52:52;12.50;;;8.27;;
3311;SDS011;1668;49.648;8.570;2022-09-13T10:55:24;8.90;;;7.20;;
3311;SDS011;1668;49.648;8.570;2022-09-13T10:58:09;10.90;;;7.97;;
3311;SDS011;1668;49.648;8.570;2022-09-13T11:00:43;9.37;;;6.70;;
3311;SDS011;1668;49.648;8.570;2022-09-13T11:06:25;10.53;;;7.03;;
3311;SDS011;1668;49.648;8.570;2022-09-13T11:08:59;7.80;;;6.90;;
3311;SDS011;1668;49.648;8.570;2022-09-13T11:11:34;8.90;;;6.57;;
3311;SDS011;1668;49.648;8.570;2022-09-13T11:14:15;7.60;;;6.03;;
3311;SDS011;1668;49.648;8.570;2022-09-13T11:16:54;7.97;;;6.20;;
3311;SDS011;1668;49.648;8.570;2022-09-13T11:22:21;7.63;;;6.10;;
3311;SDS011;1668;49.648;8.570;2022-09-13T11:24:59;7.77;;;6.00;;
3311;SDS011;1668;49.648;8.570;2022-09-13T11:27:37;10.10;;;6.37;;
3311;SDS011;1668;49.648;8.570;2022-09-13T11:30:15;9.53;;;7.13;;
3311;SDS011;1668;49.648;8.570;2022-09-13T11:32:48;11.60;;;7.50;;
3311;SDS011;1668;49.648;8.570;2022-09-13T11:35:28;9.43;;;7.37;;
3311;SDS011;1668;49.648;8.570;2022-09-13T11:38:11;9.70;;;7.53;;
3311;SDS011;1668;49.648;8.570;2022-09-13T11:40:54;8.80;;;6.90;;
3311;SDS011;1668;49.648;8.570;2022-09-13T11:43:30;11.00;;;7.37;;
3311;SDS011;1668;49.648;8.570;2022-09-13T11:46:08;9.40;;;7.50;;
3311;SDS011;1668;49.648;8.570;2022-09-13T11:48:45;10.40;;;7.10;;
3311;SDS011;1668;49.648;8.570;2022-09-13T11:51:29;10.00;;;7.63;;
3311;SDS011;1668;49.648;8.570;2022-09-13T11:54:09;11.73;;;7.33;;
3311;SDS011;1668;49.648;8.570;2022-09-13T11:56:48;9.43;;;7.83;;
3311;SDS011;1668;49.648;8.570;2022-09-13T11:59:23;13.40;;;8.47;;
3311;SDS011;1668;49.648;8.570;2022-09-13T12:02:01;9.20;;;8.30;;
3311;SDS011;1668;49.648;8.570;2022-09-13T12:04:37;10.37;;;7.77;;
3311;SDS011;1668;49.648;8.570;2022-09-13T12:07:11;10.30;;;8.53;;
3311;SDS011;1668;49.648;8.570;2022-09-13T12:09:45;12.70;;;8.40;;
3311;SDS011;1668;49.648;8.570;2022-09-13T12:12:17;9.23;;;8.23;;
3311;SDS011;1668;49.648;8.570;2022-09-13T12:14:46;11.63;;;8.83;;
3311;SDS011;1668;49.648;8.570;2022-09-13T12:17:24;13.33;;;8.50;;
3311;SDS011;1668;49.648;8.570;2022-09-13T12:19:54;14.20;;;8.77;;
3311;SDS011;1668;49.648;8.570;2022-09-13T12:22:26;11.77;;;8.93;;
3311;SDS011;1668;49.648;8.570;2022-09-13T12:24:58;13.47;;;9.37;;
3311;SDS011;1668;49.648;8.570;2022-09-13T12:27:30;12.70;;;9.43;;
3311;SDS011;1668;49.648;8.570;2022-09-13T12:30:04;10.73;;;9.33;;
3311;SDS011;1668;49.648;8.570;2022-09-13T12:32:34;16.90;;;9.33;;
3311;SDS011;1668;49.648;8.570;2022-09-13T12:35:04;14.73;;;10.10;;
3311;SDS011;1668;49.648;8.570;2022-09-13T12:37:41;14.90;;;9.93;;
3311;SDS011;1668;49.648;8.570;2022-09-13T12:40:25;13.60;;;8.50;;
3311;SDS011;1668;49.648;8.570;2022-09-13T12:43:08;14.27;;;9.60;;
3311;SDS011;1668;49.648;8.570;2022-09-13T12:46:00;12.87;;;10.63;;
3311;SDS011;1668;49.648;8.570;2022-09-13T12:49:12;14.53;;;10.17;;
3311;SDS011;1668;49.648;8.570;2022-09-13T12:51:58;12.93;;;9.07;;
3311;SDS011;1668;49.648;8.570;2022-09-13T12:54:40;14.43;;;8.60;;
3311;SDS011;1668;49.648;8.570;2022-09-13T12:57:22;11.50;;;9.13;;
3311;SDS011;1668;49.648;8.570;2022-09-13T13:00:07;12.40;;;9.43;;
3311;SDS011;1668;49.648;8.570;2022-09-13T13:02:38;10.80;;;8.53;;
3311;SDS011;1668;49.648;8.570;2022-09-13T13:05:19;11.97;;;8.50;;
3311;SDS011;1668;49.648;8.570;2022-09-13T13:07:51;15.43;;;8.83;;
3311;SDS011;1668;49.648;8.570;2022-09-13T13:10:25;10.73;;;7.93;;
3311;SDS011;1668;49.648;8.570;2022-09-13T13:12:54;11.00;;;8.50;;
3311;SDS011;1668;49.648;8.570;2022-09-13T13:18:23;8.30;;;6.60;;
3311;SDS011;1668;49.648;8.570;2022-09-13T13:21:20;13.87;;;8.47;;
3311;SDS011;1668;49.648;8.570;2022-09-13T13:33:23;8.03;;;6.43;;
3311;SDS011;1668;49.648;8.570;2022-09-13T13:35:53;8.37;;;6.53;;
3311;SDS011;1668;49.648;8.570;2022-09-13T13:38:38;8.40;;;6.90;;
3311;SDS011;1668;49.648;8.570;2022-09-13T13:41:07;7.83;;;6.20;;
3311;SDS011;1668;49.648;8.570;2022-09-13T13:47:49;8.77;;;6.50;;
3311;SDS011;1668;49.648;8.570;2022-09-13T13:50:20;6.93;;;5.80;;
3311;SDS011;1668;49.648;8.570;2022-09-13T13:52:51;10.90;;;6.00;;
3311;SDS011;1668;49.648;8.570;2022-09-13T13:58:14;9.03;;;5.27;;
3311;SDS011;1668;49.648;8.570;2022-09-13T14:01:10;8.73;;;5.73;;
3311;SDS011;1668;49.648;8.570;2022-09-13T14:03:59;6.97;;;4.77;;
3311;SDS011;1668;49.648;8.570;2022-09-13T14:06:42;5.90;;;4.90;;
3311;SDS011;1668;49.648;8.570;2022-09-13T14:09:20;6.20;;;4.00;;
3311;SDS011;1668;49.648;8.570;2022-09-13T14:12:00;5.30;;;4.13;;
3311;SDS011;1668;49.648;8.570;2022-09-13T14:14:50;6.27;;;4.20;;
3311;SDS011;1668;49.648;8.570;2022-09-13T14:20:29;5.30;;;4.40;;
3311;SDS011;1668;49.648;8.570;2022-09-13T14:23:14;12.23;;;5.63;;
3311;SDS011;1668;49.648;8.570;2022-09-13T14:25:43;10.60;;;5.20;;
3311;SDS011;1668;49.648;8.570;2022-09-13T14:28:13;9.70;;;5.33;;
3311;SDS011;1668;49.648;8.570;2022-09-13T14:30:45;7.30;;;5.20;;
3311;SDS011;1668;49.648;8.570;2022-09-13T14:33:31;6.60;;;4.70;;
3311;SDS011;1668;49.648;8.570;2022-09-13T14:36:01;6.40;;;5.07;;
3311;SDS011;1668;49.648;8.570;2022-09-13T14:38:30;6.60;;;5.07;;
3311;SDS011;1668;49.648;8.570;2022-09-13T14:41:00;8.80;;;5.93;;
3311;SDS011;1668;49.648;8.570;2022-09-13T14:43:37;10.90;;;6.13;;
3311;SDS011;1668;49.648;8.570;2022-09-13T14:46:06;6.97;;;6.00;;
3311;SDS011;1668;49.648;8.570;2022-09-13T14:48:37;7.70;;;5.67;;
3311;SDS011;1668;49.648;8.570;2022-09-13T14:51:07;10.50;;;5.10;;
3311;SDS011;1668;49.648;8.570;2022-09-13T14:53:41;6.40;;;5.20;;
3311;SDS011;1668;49.648;8.570;2022-09-13T14:56:12;5.67;;;4.60;;
3311;SDS011;1668;49.648;8.570;2022-09-13T14:58:46;8.50;;;4.57;;
3311;SDS011;1668;49.648;8.570;2022-09-13T15:01:16;8.47;;;5.37;;
3311;SDS011;1668;49.648;8.570;2022-09-13T15:10:46;11.70;;;4.93;;
3311;SDS011;1668;49.648;8.570;2022-09-13T15:13:14;7.60;;;4.40;;
3311;SDS011;1668;49.648;8.570;2022-09-13T15:15:41;9.97;;;4.57;;
3311;SDS011;1668;49.648;8.570;2022-09-13T15:18:22;8.20;;;4.57;;
3311;SDS011;1668;49.648;8.570;2022-09-13T15:20:50;7.73;;;3.73;;
3311;SDS011;1668;49.648;8.570;2022-09-13T15:23:20;6.80;;;4.47;;
3311;SDS011;1668;49.648;8.570;2022-09-13T15:25:51;5.97;;;4.37;;
3311;SDS011;1668;49.648;8.570;2022-09-13T15:28:20;6.07;;;4.37;;
3311;SDS011;1668;49.648;8.570;2022-09-13T15:30:49;6.50;;;4.40;;
3311;SDS011;1668;49.648;8.570;2022-09-13T15:33:24;7.27;;;4.50;;
3311;SDS011;1668;49.648;8.570;2022-09-13T15:41:28;6.40;;;4.80;;
3311;SDS011;1668;49.648;8.570;2022-09-13T15:43:57;5.33;;;4.80;;
3311;SDS011;1668;49.648;8.570;2022-09-13T15:46:24;6.53;;;4.93;;
3311;SDS011;1668;49.648;8.570;2022-09-13T15:48:52;5.70;;;4.30;;
3311;SDS011;1668;49.648;8.570;2022-09-13T15:51:21;9.83;;;5.00;;
3311;SDS011;1668;49.648;8.570;2022-09-13T15:53:48;6.93;;;5.13;;
3311;SDS011;1668;49.648;8.570;2022-09-13T15:56:16;5.20;;;4.50;;
3311;SDS011;1668;49.648;8.570;2022-09-13T15:58:45;7.13;;;4.90;;
3311;SDS011;1668;49.648;8.570;2022-09-13T16:01:13;6.33;;;4.80;;
3311;SDS011;1668;49.648;8.570;2022-09-13T16:03:41;6.70;;;5.20;;
3311;SDS011;1668;49.648;8.570;2022-09-13T16:06:08;6.70;;;5.20;;
3311;SDS011;1668;49.648;8.570;2022-09-13T16:08:35;6.10;;;4.70;;
3311;SDS011;1668;49.648;8.570;2022-09-13T16:11:03;5.60;;;4.90;;
3311;SDS011;1668;49.648;8.570;2022-09-13T16:13:30;6.73;;;4.60;;
3311;SDS011;1668;49.648;8.570;2022-09-13T16:15:58;9.23;;;4.97;;
3311;SDS011;1668;49.648;8.570;2022-09-13T16:18:25;9.30;;;4.60;;
3311;SDS011;1668;49.648;8.570;2022-09-13T16:20:52;8.80;;;4.30;;
3311;SDS011;1668;49.648;8.570;2022-09-13T16:23:19;7.33;;;4.67;;
3311;SDS011;1668;49.648;8.570;2022-09-13T16:25:45;4.20;;;3.80;;